sensor_id;sensor_type;location;lat;lon;timestamp;P1;durP1;ratioP1;P2;durP2;ratioP2
83556;SDS011;73523;55.740;13.276;2024-01-25T00:00:23;7.07;;;2.10;;
83556;SDS011;73523;55.740;13.276;2024-01-25T00:02:48;6.65;;;2.13;;
83556;SDS011;73523;55.740;13.276;2024-01-25T00:05:14;6.73;;;2.17;;
83556;SDS011;73523;55.740;13.276;2024-01-25T00:07:49;7.37;;;2.00;;
83556;SDS011;73523;55.740;13.276;2024-01-25T00:10:16;7.45;;;2.22;;
83556;SDS011;73523;55.740;13.276;2024-01-25T00:12:42;6.72;;;2.30;;
83556;SDS011;73523;55.740;13.276;2024-01-25T00:15:08;6.15;;;2.05;;
83556;SDS011;73523;55.740;13.276;2024-01-25T00:17:34;6.80;;;2.50;;
83556;SDS011;73523;55.740;13.276;2024-01-25T00:20:00;6.73;;;2.17;;
83556;SDS011;73523;55.740;13.276;2024-01-25T00:22:25;5.20;;;2.10;;
83556;SDS011;73523;55.740;13.276;2024-01-25T00:24:51;7.07;;;2.17;;
83556;SDS011;73523;55.740;13.276;2024-01-25T00:27:16;6.07;;;2.20;;
83556;SDS011;73523;55.740;13.276;2024-01-25T00:29:41;7.95;;;2.25;;
83556;SDS011;73523;55.740;13.276;2024-01-25T00:32:07;6.43;;;2.40;;
83556;SDS011;73523;55.740;13.276;2024-01-25T00:34:32;6.63;;;2.13;;
83556;SDS011;73523;55.740;13.276;2024-01-25T00:36:58;7.63;;;2.60;;
83556;SDS011;73523;55.740;13.276;2024-01-25T00:39:23;6.93;;;1.97;;
83556;SDS011;73523;55.740;13.276;2024-01-25T00:41:51;6.43;;;2.30;;
83556;SDS011;73523;55.740;13.276;2024-01-25T00:44:16;7.45;;;2.30;;
83556;SDS011;73523;55.740;13.276;2024-01-25T00:46:42;6.50;;;2.30;;
83556;SDS011;73523;55.740;13.276;2024-01-25T00:49:08;7.27;;;2.10;;
83556;SDS011;73523;55.740;13.276;2024-01-25T00:51:34;6.65;;;2.17;;
83556;SDS011;73523;55.740;13.276;2024-01-25T00:54:01;7.97;;;2.40;;
83556;SDS011;73523;55.740;13.276;2024-01-25T00:56:27;6.17;;;2.13;;
83556;SDS011;73523;55.740;13.276;2024-01-25T00:58:53;4.93;;;1.98;;
83556;SDS011;73523;55.740;13.276;2024-01-25T01:01:19;7.68;;;2.13;;
83556;SDS011;73523;55.740;13.276;2024-01-25T01:03:47;5.97;;;2.17;;
83556;SDS011;73523;55.740;13.276;2024-01-25T01:06:17;6.53;;;2.05;;
83556;SDS011;73523;55.740;13.276;2024-01-25T01:08:44;6.10;;;1.90;;
83556;SDS011;73523;55.740;13.276;2024-01-25T01:11:09;5.83;;;2.13;;
83556;SDS011;73523;55.740;13.276;2024-01-25T01:13:35;7.85;;;2.35;;
83556;SDS011;73523;55.740;13.276;2024-01-25T01:16:00;7.03;;;2.30;;
83556;SDS011;73523;55.740;13.276;2024-01-25T01:18:25;5.90;;;1.90;;
83556;SDS011;73523;55.740;13.276;2024-01-25T01:20:51;5.22;;;1.90;;
83556;SDS011;73523;55.740;13.276;2024-01-25T01:23:16;6.20;;;2.30;;
83556;SDS011;73523;55.740;13.276;2024-01-25T01:25:41;7.17;;;2.10;;
83556;SDS011;73523;55.740;13.276;2024-01-25T01:28:07;6.63;;;2.05;;
83556;SDS011;73523;55.740;13.276;2024-01-25T01:30:32;5.93;;;2.00;;
83556;SDS011;73523;55.740;13.276;2024-01-25T01:32:57;6.50;;;2.00;;
83556;SDS011;73523;55.740;13.276;2024-01-25T01:35:22;6.17;;;2.10;;
83556;SDS011;73523;55.740;13.276;2024-01-25T01:37:48;8.10;;;2.40;;
83556;SDS011;73523;55.740;13.276;2024-01-25T01:40:13;6.27;;;2.23;;
83556;SDS011;73523;55.740;13.276;2024-01-25T01:42:38;5.73;;;2.10;;
83556;SDS011;73523;55.740;13.276;2024-01-25T01:45:04;4.83;;;1.97;;
83556;SDS011;73523;55.740;13.276;2024-01-25T01:47:30;6.72;;;2.08;;
83556;SDS011;73523;55.740;13.276;2024-01-25T01:49:56;7.55;;;2.50;;
83556;SDS011;73523;55.740;13.276;2024-01-25T01:52:21;4.47;;;1.97;;
83556;SDS011;73523;55.740;13.276;2024-01-25T01:54:47;5.60;;;2.00;;
83556;SDS011;73523;55.740;13.276;2024-01-25T01:57:12;5.25;;;1.92;;
83556;SDS011;73523;55.740;13.276;2024-01-25T01:59:38;5.07;;;1.97;;
83556;SDS011;73523;55.740;13.276;2024-01-25T02:02:03;6.67;;;2.33;;
83556;SDS011;73523;55.740;13.276;2024-01-25T02:04:29;5.87;;;1.93;;
83556;SDS011;73523;55.740;13.276;2024-01-25T02:06:54;4.93;;;1.97;;
83556;SDS011;73523;55.740;13.276;2024-01-25T02:09:21;6.67;;;2.43;;
83556;SDS011;73523;55.740;13.276;2024-01-25T02:11:47;6.78;;;2.05;;
83556;SDS011;73523;55.740;13.276;2024-01-25T02:14:12;5.17;;;1.90;;
83556;SDS011;73523;55.740;13.276;2024-01-25T02:16:38;6.13;;;2.03;;
83556;SDS011;73523;55.740;13.276;2024-01-25T02:19:03;7.28;;;2.15;;
83556;SDS011;73523;55.740;13.276;2024-01-25T02:21:29;6.07;;;1.80;;
83556;SDS011;73523;55.740;13.276;2024-01-25T02:23:54;5.50;;;1.70;;
83556;SDS011;73523;55.740;13.276;2024-01-25T02:26:19;5.50;;;1.80;;
83556;SDS011;73523;55.740;13.276;2024-01-25T02:28:44;5.77;;;1.93;;
83556;SDS011;73523;55.740;13.276;2024-01-25T02:31:10;6.47;;;2.10;;
83556;SDS011;73523;55.740;13.276;2024-01-25T02:33:35;5.90;;;2.10;;
83556;SDS011;73523;55.740;13.276;2024-01-25T02:36:00;5.40;;;2.17;;
83556;SDS011;73523;55.740;13.276;2024-01-25T02:38:26;6.47;;;2.23;;
83556;SDS011;73523;55.740;13.276;2024-01-25T02:40:51;6.22;;;2.20;;
83556;SDS011;73523;55.740;13.276;2024-01-25T02:43:18;7.03;;;2.33;;
83556;SDS011;73523;55.740;13.276;2024-01-25T02:45:44;8.20;;;2.40;;
83556;SDS011;73523;55.740;13.276;2024-01-25T02:48:09;6.77;;;2.30;;
83556;SDS011;73523;55.740;13.276;2024-01-25T02:50:35;5.43;;;2.10;;
83556;SDS011;73523;55.740;13.276;2024-01-25T02:53:00;6.20;;;2.23;;
83556;SDS011;73523;55.740;13.276;2024-01-25T02:55:25;5.70;;;2.20;;
83556;SDS011;73523;55.740;13.276;2024-01-25T02:57:51;6.22;;;2.10;;
83556;SDS011;73523;55.740;13.276;2024-01-25T03:00:16;7.87;;;2.27;;
83556;SDS011;73523;55.740;13.276;2024-01-25T03:02:42;5.23;;;2.07;;
83556;SDS011;73523;55.740;13.276;2024-01-25T03:05:07;7.90;;;2.13;;
83556;SDS011;73523;55.740;13.276;2024-01-25T03:07:32;6.63;;;2.10;;
83556;SDS011;73523;55.740;13.276;2024-01-25T03:09:58;8.32;;;2.30;;
83556;SDS011;73523;55.740;13.276;2024-01-25T03:12:23;7.20;;;2.27;;
83556;SDS011;73523;55.740;13.276;2024-01-25T03:14:48;7.03;;;2.37;;
83556;SDS011;73523;55.740;13.276;2024-01-25T03:17:14;7.37;;;2.20;;
83556;SDS011;73523;55.740;13.276;2024-01-25T03:19:39;6.67;;;2.13;;
83556;SDS011;73523;55.740;13.276;2024-01-25T03:22:04;7.17;;;2.40;;
83556;SDS011;73523;55.740;13.276;2024-01-25T03:24:30;7.07;;;2.13;;
83556;SDS011;73523;55.740;13.276;2024-01-25T03:26:55;6.07;;;2.37;;
83556;SDS011;73523;55.740;13.276;2024-01-25T03:29:20;8.50;;;2.53;;
83556;SDS011;73523;55.740;13.276;2024-01-25T03:31:46;5.97;;;2.00;;
83556;SDS011;73523;55.740;13.276;2024-01-25T03:34:12;5.90;;;1.88;;
83556;SDS011;73523;55.740;13.276;2024-01-25T03:36:38;5.40;;;2.00;;
83556;SDS011;73523;55.740;13.276;2024-01-25T03:39:04;5.90;;;2.10;;
83556;SDS011;73523;55.740;13.276;2024-01-25T03:41:30;6.90;;;2.00;;
83556;SDS011;73523;55.740;13.276;2024-01-25T03:43:55;7.18;;;1.88;;
83556;SDS011;73523;55.740;13.276;2024-01-25T03:46:21;6.03;;;1.90;;
83556;SDS011;73523;55.740;13.276;2024-01-25T03:48:46;5.47;;;1.83;;
83556;SDS011;73523;55.740;13.276;2024-01-25T03:51:11;8.10;;;2.13;;
83556;SDS011;73523;55.740;13.276;2024-01-25T03:53:37;7.10;;;2.23;;
83556;SDS011;73523;55.740;13.276;2024-01-25T03:56:02;6.07;;;2.20;;
83556;SDS011;73523;55.740;13.276;2024-01-25T03:58:28;6.43;;;2.00;;
83556;SDS011;73523;55.740;13.276;2024-01-25T04:00:53;6.20;;;2.05;;
83556;SDS011;73523;55.740;13.276;2024-01-25T04:03:18;6.53;;;2.20;;
83556;SDS011;73523;55.740;13.276;2024-01-25T04:05:44;7.93;;;2.13;;
83556;SDS011;73523;55.740;13.276;2024-01-25T04:08:09;7.53;;;2.30;;
83556;SDS011;73523;55.740;13.276;2024-01-25T04:10:35;7.37;;;2.33;;
83556;SDS011;73523;55.740;13.276;2024-01-25T04:13:00;9.17;;;2.27;;
83556;SDS011;73523;55.740;13.276;2024-01-25T04:15:26;8.93;;;2.30;;
83556;SDS011;73523;55.740;13.276;2024-01-25T04:17:52;8.27;;;2.57;;
83556;SDS011;73523;55.740;13.276;2024-01-25T04:20:18;6.33;;;1.80;;
83556;SDS011;73523;55.740;13.276;2024-01-25T04:22:44;8.33;;;2.30;;
83556;SDS011;73523;55.740;13.276;2024-01-25T04:25:09;6.35;;;2.00;;
83556;SDS011;73523;55.740;13.276;2024-01-25T04:27:36;6.75;;;2.08;;
83556;SDS011;73523;55.740;13.276;2024-01-25T04:30:03;7.73;;;2.43;;
83556;SDS011;73523;55.740;13.276;2024-01-25T04:32:28;7.80;;;2.20;;
83556;SDS011;73523;55.740;13.276;2024-01-25T04:34:54;7.63;;;2.30;;
83556;SDS011;73523;55.740;13.276;2024-01-25T04:37:19;6.77;;;2.40;;
83556;SDS011;73523;55.740;13.276;2024-01-25T04:39:44;8.00;;;2.30;;
83556;SDS011;73523;55.740;13.276;2024-01-25T04:42:10;7.23;;;2.30;;
83556;SDS011;73523;55.740;13.276;2024-01-25T04:44:35;7.23;;;2.23;;
83556;SDS011;73523;55.740;13.276;2024-01-25T04:47:00;7.77;;;2.17;;
83556;SDS011;73523;55.740;13.276;2024-01-25T04:49:26;6.60;;;2.20;;
83556;SDS011;73523;55.740;13.276;2024-01-25T04:51:51;7.07;;;2.33;;
83556;SDS011;73523;55.740;13.276;2024-01-25T04:54:16;6.37;;;2.10;;
83556;SDS011;73523;55.740;13.276;2024-01-25T04:56:42;7.35;;;2.28;;
83556;SDS011;73523;55.740;13.276;2024-01-25T04:59:07;5.33;;;1.80;;
83556;SDS011;73523;55.740;13.276;2024-01-25T05:01:33;7.53;;;2.10;;
83556;SDS011;73523;55.740;13.276;2024-01-25T05:03:58;6.57;;;2.20;;
83556;SDS011;73523;55.740;13.276;2024-01-25T05:06:23;7.30;;;2.13;;
83556;SDS011;73523;55.740;13.276;2024-01-25T05:08:49;6.03;;;1.92;;
83556;SDS011;73523;55.740;13.276;2024-01-25T05:11:14;7.27;;;1.97;;
83556;SDS011;73523;55.740;13.276;2024-01-25T05:13:39;6.57;;;1.90;;
83556;SDS011;73523;55.740;13.276;2024-01-25T05:16:05;7.63;;;2.22;;
83556;SDS011;73523;55.740;13.276;2024-01-25T05:18:30;7.10;;;2.30;;
83556;SDS011;73523;55.740;13.276;2024-01-25T05:20:55;7.07;;;2.13;;
83556;SDS011;73523;55.740;13.276;2024-01-25T05:23:21;8.33;;;2.20;;
83556;SDS011;73523;55.740;13.276;2024-01-25T05:25:46;8.63;;;2.20;;
83556;SDS011;73523;55.740;13.276;2024-01-25T05:28:12;6.97;;;2.42;;
83556;SDS011;73523;55.740;13.276;2024-01-25T05:30:37;5.90;;;2.17;;
83556;SDS011;73523;55.740;13.276;2024-01-25T05:33:03;7.03;;;2.22;;
83556;SDS011;73523;55.740;13.276;2024-01-25T05:35:28;6.27;;;2.10;;
83556;SDS011;73523;55.740;13.276;2024-01-25T05:37:54;6.10;;;2.10;;
83556;SDS011;73523;55.740;13.276;2024-01-25T05:40:19;5.47;;;2.10;;
83556;SDS011;73523;55.740;13.276;2024-01-25T05:42:44;6.07;;;2.30;;
83556;SDS011;73523;55.740;13.276;2024-01-25T05:45:10;5.90;;;2.03;;
83556;SDS011;73523;55.740;13.276;2024-01-25T05:47:35;6.07;;;2.00;;
83556;SDS011;73523;55.740;13.276;2024-01-25T05:50:01;7.30;;;2.30;;
83556;SDS011;73523;55.740;13.276;2024-01-25T05:52:27;5.90;;;2.08;;
83556;SDS011;73523;55.740;13.276;2024-01-25T05:54:52;6.25;;;2.10;;
83556;SDS011;73523;55.740;13.276;2024-01-25T05:57:18;6.77;;;2.07;;
83556;SDS011;73523;55.740;13.276;2024-01-25T05:59:44;7.78;;;2.20;;
83556;SDS011;73523;55.740;13.276;2024-01-25T06:02:09;5.97;;;2.22;;
83556;SDS011;73523;55.740;13.276;2024-01-25T06:04:34;6.07;;;2.00;;
83556;SDS011;73523;55.740;13.276;2024-01-25T06:07:00;4.33;;;1.80;;
83556;SDS011;73523;55.740;13.276;2024-01-25T06:09:25;5.43;;;1.95;;
83556;SDS011;73523;55.740;13.276;2024-01-25T06:11:51;6.57;;;2.00;;
83556;SDS011;73523;55.740;13.276;2024-01-25T06:14:16;6.70;;;2.03;;
83556;SDS011;73523;55.740;13.276;2024-01-25T06:16:42;6.67;;;2.07;;
83556;SDS011;73523;55.740;13.276;2024-01-25T06:19:07;5.70;;;2.08;;
83556;SDS011;73523;55.740;13.276;2024-01-25T06:21:33;5.70;;;1.77;;
83556;SDS011;73523;55.740;13.276;2024-01-25T06:24:02;5.95;;;1.75;;
83556;SDS011;73523;55.740;13.276;2024-01-25T06:26:30;5.90;;;1.85;;
83556;SDS011;73523;55.740;13.276;2024-01-25T06:28:56;5.82;;;2.00;;
83556;SDS011;73523;55.740;13.276;2024-01-25T06:31:22;6.13;;;2.07;;
83556;SDS011;73523;55.740;13.276;2024-01-25T06:33:47;6.70;;;2.08;;
83556;SDS011;73523;55.740;13.276;2024-01-25T06:36:15;7.00;;;2.13;;
83556;SDS011;73523;55.740;13.276;2024-01-25T06:38:41;4.87;;;1.90;;
83556;SDS011;73523;55.740;13.276;2024-01-25T06:41:07;6.23;;;2.03;;
83556;SDS011;73523;55.740;13.276;2024-01-25T06:43:32;5.70;;;1.75;;
83556;SDS011;73523;55.740;13.276;2024-01-25T06:45:58;5.50;;;1.90;;
83556;SDS011;73523;55.740;13.276;2024-01-25T06:48:23;5.33;;;1.87;;
83556;SDS011;73523;55.740;13.276;2024-01-25T06:50:48;6.13;;;2.23;;
83556;SDS011;73523;55.740;13.276;2024-01-25T06:53:15;5.53;;;1.83;;
83556;SDS011;73523;55.740;13.276;2024-01-25T06:55:41;5.38;;;1.77;;
83556;SDS011;73523;55.740;13.276;2024-01-25T06:58:06;6.47;;;2.00;;
83556;SDS011;73523;55.740;13.276;2024-01-25T07:00:32;6.87;;;1.80;;
83556;SDS011;73523;55.740;13.276;2024-01-25T07:02:57;6.40;;;2.27;;
83556;SDS011;73523;55.740;13.276;2024-01-25T07:05:22;6.43;;;2.20;;
83556;SDS011;73523;55.740;13.276;2024-01-25T07:07:49;6.55;;;2.08;;
83556;SDS011;73523;55.740;13.276;2024-01-25T07:10:14;5.53;;;1.93;;
83556;SDS011;73523;55.740;13.276;2024-01-25T07:12:39;5.80;;;1.90;;
83556;SDS011;73523;55.740;13.276;2024-01-25T07:15:05;5.20;;;1.83;;
83556;SDS011;73523;55.740;13.276;2024-01-25T07:17:30;6.63;;;2.20;;
83556;SDS011;73523;55.740;13.276;2024-01-25T07:19:56;5.17;;;1.97;;
83556;SDS011;73523;55.740;13.276;2024-01-25T07:22:21;5.33;;;1.73;;
83556;SDS011;73523;55.740;13.276;2024-01-25T07:24:47;4.90;;;1.80;;
83556;SDS011;73523;55.740;13.276;2024-01-25T07:27:12;6.27;;;2.00;;
83556;SDS011;73523;55.740;13.276;2024-01-25T07:29:38;5.13;;;2.10;;
83556;SDS011;73523;55.740;13.276;2024-01-25T07:32:03;5.20;;;1.90;;
83556;SDS011;73523;55.740;13.276;2024-01-25T07:34:28;5.63;;;1.90;;
83556;SDS011;73523;55.740;13.276;2024-01-25T07:36:54;7.17;;;2.00;;
83556;SDS011;73523;55.740;13.276;2024-01-25T07:39:19;5.70;;;1.77;;
83556;SDS011;73523;55.740;13.276;2024-01-25T07:41:44;5.93;;;1.70;;
83556;SDS011;73523;55.740;13.276;2024-01-25T07:44:10;6.90;;;1.90;;
83556;SDS011;73523;55.740;13.276;2024-01-25T07:46:35;5.40;;;2.07;;
83556;SDS011;73523;55.740;13.276;2024-01-25T07:49:00;5.45;;;1.92;;
83556;SDS011;73523;55.740;13.276;2024-01-25T07:51:26;6.93;;;1.70;;
83556;SDS011;73523;55.740;13.276;2024-01-25T07:53:53;7.18;;;1.95;;
83556;SDS011;73523;55.740;13.276;2024-01-25T07:56:19;5.47;;;1.77;;
83556;SDS011;73523;55.740;13.276;2024-01-25T07:58:46;5.10;;;1.98;;
83556;SDS011;73523;55.740;13.276;2024-01-25T08:01:13;4.85;;;1.55;;
83556;SDS011;73523;55.740;13.276;2024-01-25T08:03:42;5.72;;;1.90;;
83556;SDS011;73523;55.740;13.276;2024-01-25T08:06:08;5.23;;;1.63;;
83556;SDS011;73523;55.740;13.276;2024-01-25T08:08:33;5.73;;;1.70;;
83556;SDS011;73523;55.740;13.276;2024-01-25T08:10:58;6.03;;;1.93;;
83556;SDS011;73523;55.740;13.276;2024-01-25T08:13:24;4.10;;;1.90;;
83556;SDS011;73523;55.740;13.276;2024-01-25T08:15:50;6.03;;;1.80;;
83556;SDS011;73523;55.740;13.276;2024-01-25T08:18:16;5.50;;;1.80;;
83556;SDS011;73523;55.740;13.276;2024-01-25T08:20:44;5.53;;;1.70;;
83556;SDS011;73523;55.740;13.276;2024-01-25T08:23:09;5.93;;;2.05;;
83556;SDS011;73523;55.740;13.276;2024-01-25T08:25:35;6.13;;;1.80;;
83556;SDS011;73523;55.740;13.276;2024-01-25T08:28:00;5.85;;;1.60;;
83556;SDS011;73523;55.740;13.276;2024-01-25T08:30:26;6.07;;;1.70;;
83556;SDS011;73523;55.740;13.276;2024-01-25T08:32:51;5.43;;;1.77;;
83556;SDS011;73523;55.740;13.276;2024-01-25T08:35:18;4.78;;;1.70;;
83556;SDS011;73523;55.740;13.276;2024-01-25T08:37:44;4.93;;;1.77;;
83556;SDS011;73523;55.740;13.276;2024-01-25T08:40:09;4.40;;;1.70;;
83556;SDS011;73523;55.740;13.276;2024-01-25T08:42:35;5.10;;;1.80;;
83556;SDS011;73523;55.740;13.276;2024-01-25T08:45:01;5.47;;;1.60;;
83556;SDS011;73523;55.740;13.276;2024-01-25T08:47:26;4.78;;;1.65;;
83556;SDS011;73523;55.740;13.276;2024-01-25T08:49:52;6.13;;;1.90;;
83556;SDS011;73523;55.740;13.276;2024-01-25T08:52:17;4.53;;;1.42;;
83556;SDS011;73523;55.740;13.276;2024-01-25T08:54:42;5.37;;;1.60;;
83556;SDS011;73523;55.740;13.276;2024-01-25T08:57:08;5.03;;;1.70;;
83556;SDS011;73523;55.740;13.276;2024-01-25T08:59:34;5.60;;;1.60;;
83556;SDS011;73523;55.740;13.276;2024-01-25T09:02:03;4.32;;;1.58;;
83556;SDS011;73523;55.740;13.276;2024-01-25T09:04:30;5.22;;;1.80;;
83556;SDS011;73523;55.740;13.276;2024-01-25T09:06:56;5.03;;;1.70;;
83556;SDS011;73523;55.740;13.276;2024-01-25T09:09:21;3.50;;;1.30;;
83556;SDS011;73523;55.740;13.276;2024-01-25T09:11:46;4.23;;;1.50;;
83556;SDS011;73523;55.740;13.276;2024-01-25T09:14:11;4.40;;;1.40;;
83556;SDS011;73523;55.740;13.276;2024-01-25T09:16:37;5.70;;;1.50;;
83556;SDS011;73523;55.740;13.276;2024-01-25T09:19:03;4.70;;;1.60;;
83556;SDS011;73523;55.740;13.276;2024-01-25T09:21:28;4.53;;;1.20;;
83556;SDS011;73523;55.740;13.276;2024-01-25T09:23:54;4.07;;;1.43;;
83556;SDS011;73523;55.740;13.276;2024-01-25T09:26:19;4.30;;;1.40;;
83556;SDS011;73523;55.740;13.276;2024-01-25T09:28:44;3.87;;;1.40;;
83556;SDS011;73523;55.740;13.276;2024-01-25T09:31:10;4.33;;;1.40;;
83556;SDS011;73523;55.740;13.276;2024-01-25T09:33:35;4.47;;;1.43;;
83556;SDS011;73523;55.740;13.276;2024-01-25T09:36:00;4.47;;;1.40;;
83556;SDS011;73523;55.740;13.276;2024-01-25T09:38:26;5.03;;;1.25;;
83556;SDS011;73523;55.740;13.276;2024-01-25T09:40:51;4.63;;;1.53;;
83556;SDS011;73523;55.740;13.276;2024-01-25T09:43:17;4.23;;;1.47;;
83556;SDS011;73523;55.740;13.276;2024-01-25T09:45:45;3.60;;;1.30;;
83556;SDS011;73523;55.740;13.276;2024-01-25T09:48:11;4.10;;;1.40;;
83556;SDS011;73523;55.740;13.276;2024-01-25T09:50:36;3.50;;;1.30;;
83556;SDS011;73523;55.740;13.276;2024-01-25T09:53:02;4.15;;;1.52;;
83556;SDS011;73523;55.740;13.276;2024-01-25T09:55:30;4.20;;;1.30;;
83556;SDS011;73523;55.740;13.276;2024-01-25T09:58:01;3.38;;;1.20;;
83556;SDS011;73523;55.740;13.276;2024-01-25T10:00:32;4.13;;;1.30;;
83556;SDS011;73523;55.740;13.276;2024-01-25T10:02:58;3.47;;;1.50;;
83556;SDS011;73523;55.740;13.276;2024-01-25T10:05:23;4.13;;;1.47;;
83556;SDS011;73523;55.740;13.276;2024-01-25T10:07:48;3.50;;;1.50;;
83556;SDS011;73523;55.740;13.276;2024-01-25T10:10:14;4.13;;;1.33;;
83556;SDS011;73523;55.740;13.276;2024-01-25T10:12:42;3.25;;;1.60;;
83556;SDS011;73523;55.740;13.276;2024-01-25T10:15:08;3.13;;;1.30;;
83556;SDS011;73523;55.740;13.276;2024-01-25T10:17:34;4.18;;;1.38;;
83556;SDS011;73523;55.740;13.276;2024-01-25T10:20:00;3.05;;;1.10;;
83556;SDS011;73523;55.740;13.276;2024-01-25T10:22:25;3.30;;;1.33;;
83556;SDS011;73523;55.740;13.276;2024-01-25T10:24:51;3.42;;;1.10;;
83556;SDS011;73523;55.740;13.276;2024-01-25T10:27:21;2.97;;;1.30;;
83556;SDS011;73523;55.740;13.276;2024-01-25T10:29:46;3.95;;;1.30;;
83556;SDS011;73523;55.740;13.276;2024-01-25T10:32:12;4.22;;;1.23;;
83556;SDS011;73523;55.740;13.276;2024-01-25T10:34:38;3.13;;;1.20;;
83556;SDS011;73523;55.740;13.276;2024-01-25T10:37:07;3.40;;;1.20;;
83556;SDS011;73523;55.740;13.276;2024-01-25T10:39:33;4.50;;;1.20;;
83556;SDS011;73523;55.740;13.276;2024-01-25T10:41:59;2.65;;;1.10;;
83556;SDS011;73523;55.740;13.276;2024-01-25T10:44:24;2.70;;;1.08;;
83556;SDS011;73523;55.740;13.276;2024-01-25T10:46:50;3.92;;;1.13;;
83556;SDS011;73523;55.740;13.276;2024-01-25T10:49:17;3.10;;;1.30;;
83556;SDS011;73523;55.740;13.276;2024-01-25T10:51:43;3.03;;;1.15;;
83556;SDS011;73523;55.740;13.276;2024-01-25T10:54:10;4.18;;;1.20;;
83556;SDS011;73523;55.740;13.276;2024-01-25T10:56:40;3.35;;;1.20;;
83556;SDS011;73523;55.740;13.276;2024-01-25T10:59:06;3.33;;;1.08;;
83556;SDS011;73523;55.740;13.276;2024-01-25T11:01:33;2.65;;;1.20;;
83556;SDS011;73523;55.740;13.276;2024-01-25T11:03:59;2.35;;;0.90;;
83556;SDS011;73523;55.740;13.276;2024-01-25T11:06:26;2.83;;;1.10;;
83556;SDS011;73523;55.740;13.276;2024-01-25T11:09:02;2.35;;;0.80;;
83556;SDS011;73523;55.740;13.276;2024-01-25T11:11:29;2.45;;;1.20;;
83556;SDS011;73523;55.740;13.276;2024-01-25T11:13:56;2.60;;;0.90;;
83556;SDS011;73523;55.740;13.276;2024-01-25T11:16:29;2.45;;;0.90;;
83556;SDS011;73523;55.740;13.276;2024-01-25T11:18:57;2.25;;;0.85;;
83556;SDS011;73523;55.740;13.276;2024-01-25T11:21:45;1.88;;;0.80;;
83556;SDS011;73523;55.740;13.276;2024-01-25T11:24:15;2.45;;;1.02;;
83556;SDS011;73523;55.740;13.276;2024-01-25T11:26:48;2.60;;;0.90;;
83556;SDS011;73523;55.740;13.276;2024-01-25T11:29:20;2.95;;;1.00;;
83556;SDS011;73523;55.740;13.276;2024-01-25T11:31:48;2.80;;;1.17;;
83556;SDS011;73523;55.740;13.276;2024-01-25T11:34:16;2.85;;;1.05;;
83556;SDS011;73523;55.740;13.276;2024-01-25T11:36:43;2.53;;;0.90;;
83556;SDS011;73523;55.740;13.276;2024-01-25T11:39:09;1.77;;;0.70;;
83556;SDS011;73523;55.740;13.276;2024-01-25T11:41:36;3.40;;;0.90;;
83556;SDS011;73523;55.740;13.276;2024-01-25T11:44:01;2.63;;;0.90;;
83556;SDS011;73523;55.740;13.276;2024-01-25T11:46:28;2.20;;;0.80;;
83556;SDS011;73523;55.740;13.276;2024-01-25T11:48:55;2.47;;;0.90;;
83556;SDS011;73523;55.740;13.276;2024-01-25T11:51:20;1.80;;;0.70;;
83556;SDS011;73523;55.740;13.276;2024-01-25T11:53:45;3.78;;;1.00;;
83556;SDS011;73523;55.740;13.276;2024-01-25T11:56:12;3.20;;;1.00;;
83556;SDS011;73523;55.740;13.276;2024-01-25T11:58:42;2.05;;;0.90;;
83556;SDS011;73523;55.740;13.276;2024-01-25T12:01:08;2.28;;;0.82;;
83556;SDS011;73523;55.740;13.276;2024-01-25T12:03:34;1.63;;;0.80;;
83556;SDS011;73523;55.740;13.276;2024-01-25T12:06:01;2.10;;;0.73;;
83556;SDS011;73523;55.740;13.276;2024-01-25T12:08:29;1.85;;;0.60;;
83556;SDS011;73523;55.740;13.276;2024-01-25T12:11:04;1.67;;;0.83;;
83556;SDS011;73523;55.740;13.276;2024-01-25T12:13:32;3.00;;;0.77;;
83556;SDS011;73523;55.740;13.276;2024-01-25T12:15:59;2.40;;;0.95;;
83556;SDS011;73523;55.740;13.276;2024-01-25T12:18:25;1.92;;;0.70;;
83556;SDS011;73523;55.740;13.276;2024-01-25T12:20:50;1.42;;;0.70;;
83556;SDS011;73523;55.740;13.276;2024-01-25T12:23:16;2.70;;;0.90;;
83556;SDS011;73523;55.740;13.276;2024-01-25T12:25:41;2.27;;;0.80;;
83556;SDS011;73523;55.740;13.276;2024-01-25T12:28:06;2.00;;;0.80;;
83556;SDS011;73523;55.740;13.276;2024-01-25T12:30:32;1.93;;;0.60;;
83556;SDS011;73523;55.740;13.276;2024-01-25T12:32:57;1.57;;;0.60;;
83556;SDS011;73523;55.740;13.276;2024-01-25T12:35:22;1.83;;;0.70;;
83556;SDS011;73523;55.740;13.276;2024-01-25T12:37:47;1.50;;;0.60;;
83556;SDS011;73523;55.740;13.276;2024-01-25T12:40:13;2.10;;;0.77;;
83556;SDS011;73523;55.740;13.276;2024-01-25T12:42:38;2.92;;;0.60;;
83556;SDS011;73523;55.740;13.276;2024-01-25T12:45:04;1.27;;;0.60;;
83556;SDS011;73523;55.740;13.276;2024-01-25T12:47:29;1.50;;;0.70;;
83556;SDS011;73523;55.740;13.276;2024-01-25T12:49:55;1.60;;;0.60;;
83556;SDS011;73523;55.740;13.276;2024-01-25T12:52:20;1.95;;;0.70;;
83556;SDS011;73523;55.740;13.276;2024-01-25T12:54:46;1.63;;;0.60;;
83556;SDS011;73523;55.740;13.276;2024-01-25T12:57:11;1.37;;;0.50;;
83556;SDS011;73523;55.740;13.276;2024-01-25T12:59:36;1.70;;;0.70;;
83556;SDS011;73523;55.740;13.276;2024-01-25T13:02:03;1.10;;;0.50;;
83556;SDS011;73523;55.740;13.276;2024-01-25T13:04:30;1.40;;;0.60;;
83556;SDS011;73523;55.740;13.276;2024-01-25T13:06:55;1.85;;;0.50;;
83556;SDS011;73523;55.740;13.276;2024-01-25T13:09:21;1.00;;;0.50;;
83556;SDS011;73523;55.740;13.276;2024-01-25T13:11:47;1.38;;;0.60;;
83556;SDS011;73523;55.740;13.276;2024-01-25T13:14:13;1.50;;;0.60;;
83556;SDS011;73523;55.740;13.276;2024-01-25T13:16:38;1.75;;;0.60;;
83556;SDS011;73523;55.740;13.276;2024-01-25T13:19:04;1.43;;;0.40;;
83556;SDS011;73523;55.740;13.276;2024-01-25T13:21:29;1.27;;;0.50;;
83556;SDS011;73523;55.740;13.276;2024-01-25T13:23:54;1.33;;;0.50;;
83556;SDS011;73523;55.740;13.276;2024-01-25T13:26:20;1.00;;;0.43;;
83556;SDS011;73523;55.740;13.276;2024-01-25T13:28:45;1.65;;;0.60;;
83556;SDS011;73523;55.740;13.276;2024-01-25T13:31:10;1.33;;;0.50;;
83556;SDS011;73523;55.740;13.276;2024-01-25T13:33:36;1.43;;;0.47;;
83556;SDS011;73523;55.740;13.276;2024-01-25T13:36:01;1.65;;;0.50;;
83556;SDS011;73523;55.740;13.276;2024-01-25T13:38:26;1.17;;;0.57;;
83556;SDS011;73523;55.740;13.276;2024-01-25T13:40:52;1.05;;;0.50;;
83556;SDS011;73523;55.740;13.276;2024-01-25T13:43:17;1.57;;;0.60;;
83556;SDS011;73523;55.740;13.276;2024-01-25T13:45:43;1.80;;;0.40;;
83556;SDS011;73523;55.740;13.276;2024-01-25T13:48:08;1.20;;;0.40;;
83556;SDS011;73523;55.740;13.276;2024-01-25T13:50:33;1.03;;;0.40;;
83556;SDS011;73523;55.740;13.276;2024-01-25T13:52:59;1.20;;;0.50;;
83556;SDS011;73523;55.740;13.276;2024-01-25T13:55:24;1.30;;;0.40;;
83556;SDS011;73523;55.740;13.276;2024-01-25T13:57:49;1.47;;;0.50;;
83556;SDS011;73523;55.740;13.276;2024-01-25T14:00:15;1.10;;;0.40;;
83556;SDS011;73523;55.740;13.276;2024-01-25T14:02:40;0.90;;;0.40;;
83556;SDS011;73523;55.740;13.276;2024-01-25T14:05:10;1.07;;;0.47;;
83556;SDS011;73523;55.740;13.276;2024-01-25T14:07:36;2.20;;;0.50;;
83556;SDS011;73523;55.740;13.276;2024-01-25T14:10:01;1.20;;;0.50;;
83556;SDS011;73523;55.740;13.276;2024-01-25T14:12:26;1.53;;;0.63;;
83556;SDS011;73523;55.740;13.276;2024-01-25T14:14:52;1.13;;;0.60;;
83556;SDS011;73523;55.740;13.276;2024-01-25T14:17:17;0.93;;;0.40;;
83556;SDS011;73523;55.740;13.276;2024-01-25T14:19:42;1.40;;;0.40;;
83556;SDS011;73523;55.740;13.276;2024-01-25T14:22:08;0.63;;;0.32;;
83556;SDS011;73523;55.740;13.276;2024-01-25T14:24:34;1.13;;;0.40;;